Time,TemperatureF,DewpointF,PressureIn,WindDirection,WindDirectionDegrees,WindSpeedMPH,WindSpeedGustMPH,Humidity,HourlyPrecipIn,Conditions,Clouds,dailyrainin,SoftwareType,DateUTC
2013-02-22 00:11:00,42.6,41.0,30.03,SW,224,2.0,5.0,92,0.00,,,0.00,weatherlink.com 1.10,2013-02-22 08:11:00,
2013-02-22 00:27:00,42.7,41.0,30.02,WSW,250,0.0,9.0,93,0.00,,,0.00,weatherlink.com 1.10,2013-02-22 08:27:00,
2013-02-22 00:42:00,42.9,41.0,30.02,SE,140,2.0,11.0,92,0.00,,,0.00,weatherlink.com 1.10,2013-02-22 08:42:00,
2013-02-22 00:57:00,43.0,41.0,30.02,South,191,5.0,8.0,92,0.00,,,0.00,weatherlink.com 1.10,2013-02-22 08:57:00,
2013-02-22 01:12:00,42.9,41.0,30.02,ESE,114,1.0,5.0,92,0.00,,,0.00,weatherlink.com 1.10,2013-02-22 09:12:00,
2013-02-22 01:27:00,43.0,41.0,30.02,South,188,6.0,9.0,91,0.00,,,0.00,weatherlink.com 1.10,2013-02-22 09:27:00,
2013-02-22 01:42:00,43.0,41.0,30.01,WNW,287,0.0,10.0,91,0.00,,,0.00,weatherlink.com 1.10,2013-02-22 09:42:00,
2013-02-22 01:57:00,42.8,40.0,30.01,WSW,238,1.0,4.0,91,0.00,,,0.00,weatherlink.com 1.10,2013-02-22 09:57:00,
2013-02-22 02:12:00,42.8,40.0,30.01,SSW,198,0.0,4.0,91,0.00,,,0.00,weatherlink.com 1.10,2013-02-22 10:12:00,
2013-02-22 02:27:00,42.8,41.0,30.01,West,277,1.0,7.0,92,0.00,,,0.00,weatherlink.com 1.10,2013-02-22 10:27:00,
2013-02-22 02:42:00,42.7,41.0,30.02,WSW,256,6.0,9.0,92,0.00,,,0.00,weatherlink.com 1.10,2013-02-22 10:42:00,
2013-02-22 02:57:00,42.5,40.0,30.00,WSW,250,1.0,7.0,92,0.00,,,0.00,weatherlink.com 1.10,2013-02-22 10:57:00,
2013-02-22 03:12:00,42.4,41.0,29.99,SSW,213,1.0,15.0,93,0.00,,,0.00,weatherlink.com 1.10,2013-02-22 11:12:00,
2013-02-22 03:27:00,42.3,41.0,29.99,WSW,250,0.0,7.0,94,0.00,,,0.00,weatherlink.com 1.10,2013-02-22 11:27:00,
2013-02-22 03:42:00,42.2,41.0,29.97,SSE,153,1.0,7.0,95,0.01,,,0.01,weatherlink.com 1.10,2013-02-22 11:42:00,
2013-02-22 03:57:00,42.0,41.0,29.96,SW,225,0.0,7.0,95,0.01,,,0.01,weatherlink.com 1.10,2013-02-22 11:57:00,
2013-02-22 04:12:00,41.9,41.0,29.95,SSW,194,3.0,4.0,95,0.01,,,0.01,weatherlink.com 1.10,2013-02-22 12:12:00,
2013-02-22 04:27:00,41.9,41.0,29.95,SW,224,3.0,6.0,96,0.02,,,0.02,weatherlink.com 1.10,2013-02-22 12:27:00,
2013-02-22 04:42:00,42.1,41.0,29.94,SSW,208,4.0,9.0,95,0.01,,,0.02,weatherlink.com 1.10,2013-02-22 12:42:00,
2013-02-22 04:57:00,42.3,41.0,29.93,WSW,238,0.0,8.0,95,0.01,,,0.02,weatherlink.com 1.10,2013-02-22 12:57:00,
2013-02-22 05:12:00,42.2,41.0,29.93,SSE,155,1.0,8.0,95,0.02,,,0.03,weatherlink.com 1.10,2013-02-22 13:12:00,
2013-02-22 05:27:00,42.0,41.0,29.91,WSW,249,1.0,8.0,96,0.02,,,0.04,weatherlink.com 1.10,2013-02-22 13:27:00,
2013-02-22 05:42:00,42.0,41.0,29.91,SSW,212,1.0,11.0,96,0.02,,,0.04,weatherlink.com 1.10,2013-02-22 13:42:00,
2013-02-22 05:57:00,42.0,41.0,29.89,WSW,253,0.0,7.0,96,0.03,,,0.05,weatherlink.com 1.10,2013-02-22 13:57:00,
2013-02-22 06:12:00,42.2,41.0,29.89,SSW,198,0.0,8.0,96,0.03,,,0.06,weatherlink.com 1.10,2013-02-22 14:12:00,
2013-02-22 06:27:00,42.2,41.0,29.86,SE,146,3.0,7.0,96,0.02,,,0.06,weatherlink.com 1.10,2013-02-22 14:27:00,
2013-02-22 06:42:00,42.2,41.0,29.85,SW,215,1.0,10.0,97,0.03,,,0.07,weatherlink.com 1.10,2013-02-22 14:42:00,
2013-02-22 06:57:00,42.3,41.0,29.84,West,269,3.0,15.0,96,0.02,,,0.07,weatherlink.com 1.10,2013-02-22 14:57:00,
2013-02-22 07:13:00,42.4,41.0,29.85,WSW,245,2.0,9.0,96,0.02,,,0.08,weatherlink.com 1.10,2013-02-22 15:13:00,
2013-02-22 07:28:00,42.4,41.0,29.85,SW,221,2.0,11.0,96,0.03,,,0.09,weatherlink.com 1.10,2013-02-22 15:28:00,
2013-02-22 07:43:00,42.4,41.0,29.85,NE,36,0.0,8.0,96,0.04,,,0.11,weatherlink.com 1.10,2013-02-22 15:43:00,
2013-02-22 07:58:00,42.3,41.0,29.84,NE,39,2.0,11.0,96,0.06,,,0.13,weatherlink.com 1.10,2013-02-22 15:58:00,
2013-02-22 08:13:00,42.1,41.0,29.83,WSW,241,4.0,7.0,96,0.08,,,0.16,weatherlink.com 1.10,2013-02-22 16:13:00,
2013-02-22 08:28:00,41.6,41.0,29.83,SE,131,2.0,12.0,96,0.11,,,0.20,weatherlink.com 1.10,2013-02-22 16:28:00,
2013-02-22 08:43:00,41.3,40.0,29.81,SE,136,3.0,13.0,95,0.13,,,0.24,weatherlink.com 1.10,2013-02-22 16:43:00,
2013-02-22 08:58:00,41.0,40.0,29.79,SE,142,2.0,16.0,95,0.14,,,0.27,weatherlink.com 1.10,2013-02-22 16:58:00,
2013-02-22 09:13:00,40.8,40.0,29.80,SW,217,2.0,15.0,95,0.14,,,0.30,weatherlink.com 1.10,2013-02-22 17:13:00,
2013-02-22 09:28:00,41.0,40.0,29.80,SSW,201,3.0,14.0,96,0.10,,,0.30,weatherlink.com 1.10,2013-02-22 17:28:00,
2013-02-22 09:43:00,40.9,40.0,29.78,SE,133,2.0,18.0,96,0.07,,,0.31,weatherlink.com 1.10,2013-02-22 17:43:00,
2013-02-22 09:58:00,40.7,39.0,29.79,SSW,209,3.0,16.0,95,0.04,,,0.32,weatherlink.com 1.10,2013-02-22 17:58:00,
2013-02-22 10:13:00,40.7,40.0,29.78,SSW,198,3.0,14.0,96,0.03,,,0.33,weatherlink.com 1.10,2013-02-22 18:13:00,
2013-02-22 10:28:00,40.7,39.0,29.79,West,260,2.0,14.0,95,0.04,,,0.35,weatherlink.com 1.10,2013-02-22 18:28:00,
2013-02-22 10:43:00,40.8,40.0,29.78,SSE,168,5.0,16.0,96,0.05,,,0.36,weatherlink.com 1.10,2013-02-22 18:43:00,
2013-02-22 10:58:00,40.9,40.0,29.77,SW,236,1.0,15.0,96,0.05,,,0.37,weatherlink.com 1.10,2013-02-22 18:58:00,
2013-02-22 11:13:00,41.1,40.0,29.76,ESE,109,11.0,16.0,95,0.03,,,0.37,weatherlink.com 1.10,2013-02-22 19:13:00,
2013-02-22 11:28:00,41.3,40.0,29.74,NE,37,0.0,20.0,95,0.02,,,0.37,weatherlink.com 1.10,2013-02-22 19:28:00,
2013-02-22 11:43:00,41.5,40.0,29.72,ESE,123,13.0,16.0,95,0.01,,,0.37,weatherlink.com 1.10,2013-02-22 19:43:00,
2013-02-22 11:58:00,41.8,41.0,29.72,WSW,256,2.0,13.0,96,0.00,,,0.37,weatherlink.com 1.10,2013-02-22 19:58:00,
2013-02-22 12:13:00,42.1,41.0,29.71,SSE,168,8.0,21.0,95,0.00,,,0.37,weatherlink.com 1.10,2013-02-22 20:13:00,
2013-02-22 12:28:00,42.1,41.0,29.71,South,186,1.0,16.0,96,0.00,,,0.37,weatherlink.com 1.10,2013-02-22 20:28:00,
2013-02-22 12:43:00,42.4,41.0,29.69,NNE,19,1.0,10.0,96,0.00,,,0.37,weatherlink.com 1.10,2013-02-22 20:43:00,
2013-02-22 12:58:00,43.0,42.0,29.68,WSW,247,3.0,11.0,96,0.00,,,0.37,weatherlink.com 1.10,2013-02-22 20:58:00,
2013-02-22 13:13:00,43.4,42.0,29.67,SSE,153,1.0,14.0,96,0.00,,,0.37,weatherlink.com 1.10,2013-02-22 21:13:00,
2013-02-22 13:29:00,43.4,42.0,29.66,WSW,253,3.0,14.0,96,0.00,,,0.37,weatherlink.com 1.10,2013-02-22 21:29:00,
2013-02-22 13:44:00,43.4,42.0,29.65,SW,226,4.0,13.0,96,0.00,,,0.37,weatherlink.com 1.10,2013-02-22 21:44:00,
2013-02-22 13:59:00,44.3,43.0,29.66,WSW,257,1.0,11.0,96,0.00,,,0.37,weatherlink.com 1.10,2013-02-22 21:59:00,
2013-02-22 14:14:00,44.1,43.0,29.65,WSW,257,2.0,9.0,96,0.00,,,0.37,weatherlink.com 1.10,2013-02-22 22:14:00,
2013-02-22 14:29:00,44.6,44.0,29.65,SW,229,1.0,8.0,96,0.00,,,0.37,weatherlink.com 1.10,2013-02-22 22:29:00,
2013-02-22 14:44:00,45.4,44.0,29.64,SW,221,1.0,7.0,96,0.00,,,0.37,weatherlink.com 1.10,2013-02-22 22:44:00,
2013-02-22 14:59:00,46.7,45.0,29.64,NNE,32,0.0,8.0,95,0.00,,,0.37,weatherlink.com 1.10,2013-02-22 22:59:00,
2013-02-22 15:14:00,47.8,46.0,29.65,SW,221,1.0,10.0,93,0.00,,,0.37,weatherlink.com 1.10,2013-02-22 23:14:00,
2013-02-22 15:29:00,48.4,45.0,29.66,WSW,253,2.0,11.0,89,0.00,,,0.37,weatherlink.com 1.10,2013-02-22 23:29:00,
2013-02-22 15:44:00,47.8,43.0,29.66,South,188,4.0,15.0,84,0.00,,,0.37,weatherlink.com 1.10,2013-02-22 23:44:00,
2013-02-22 15:59:00,48.0,43.0,29.67,West,277,3.0,13.0,82,0.00,,,0.37,weatherlink.com 1.10,2013-02-22 23:59:00,
2013-02-22 16:14:00,47.7,42.0,29.67,NW,305,0.0,11.0,81,0.00,,,0.37,weatherlink.com 1.10,2013-02-23 00:14:00,
2013-02-22 16:29:00,46.6,40.0,29.68,WSW,240,12.0,15.0,79,0.00,,,0.37,weatherlink.com 1.10,2013-02-23 00:29:00,
2013-02-22 16:44:00,45.9,39.0,29.68,SW,217,0.0,12.0,78,0.00,,,0.37,weatherlink.com 1.10,2013-02-23 00:44:00,
2013-02-22 16:59:00,45.0,39.0,29.68,WSW,245,5.0,16.0,78,0.00,,,0.37,weatherlink.com 1.10,2013-02-23 00:59:00,
2013-02-22 17:14:00,44.2,39.0,29.69,WSW,243,5.0,12.0,82,0.00,,,0.37,weatherlink.com 1.10,2013-02-23 01:14:00,
2013-02-22 17:29:00,43.7,39.0,29.69,WSW,250,5.0,10.0,84,0.00,,,0.37,weatherlink.com 1.10,2013-02-23 01:29:00,
2013-02-22 17:44:00,43.2,39.0,29.70,West,263,1.0,14.0,86,0.00,,,0.37,weatherlink.com 1.10,2013-02-23 01:44:00,
2013-02-22 17:59:00,42.6,38.0,29.70,SW,224,8.0,11.0,85,0.00,,,0.37,weatherlink.com 1.10,2013-02-23 01:59:00,
2013-02-22 18:14:00,41.9,37.0,29.70,SW,229,12.0,12.0,84,0.00,,,0.37,weatherlink.com 1.10,2013-02-23 02:14:00,
2013-02-22 18:29:00,41.2,37.0,29.70,SW,225,9.0,21.0,85,0.00,,,0.37,weatherlink.com 1.10,2013-02-23 02:29:00,
2013-02-22 18:44:00,40.6,37.0,29.71,SW,229,2.0,18.0,86,0.00,,,0.37,weatherlink.com 1.10,2013-02-23 02:44:00,
2013-02-22 18:59:00,40.4,36.0,29.74,SW,221,4.0,10.0,85,0.00,,,0.37,weatherlink.com 1.10,2013-02-23 02:59:00,
2013-02-22 19:14:00,39.7,36.0,29.76,East,96,2.0,10.0,86,0.00,,,0.37,weatherlink.com 1.10,2013-02-23 03:14:00,
2013-02-22 19:29:00,39.1,36.0,29.74,SE,133,3.0,9.0,89,0.00,,,0.37,weatherlink.com 1.10,2013-02-23 03:29:00,
2013-02-22 19:44:00,38.6,36.0,29.75,West,264,0.0,6.0,90,0.00,,,0.37,weatherlink.com 1.10,2013-02-23 03:44:00,
2013-02-22 19:59:00,38.3,35.0,29.77,ESE,110,2.0,8.0,89,0.00,,,0.37,weatherlink.com 1.10,2013-02-23 03:59:00,
2013-02-22 20:14:00,38.7,35.0,29.78,SSE,160,2.0,12.0,87,0.00,,,0.37,weatherlink.com 1.10,2013-02-23 04:14:00,
2013-02-22 20:29:00,38.7,35.0,29.78,SSE,162,0.0,6.0,87,0.00,,,0.37,weatherlink.com 1.10,2013-02-23 04:29:00,
2013-02-22 20:44:00,38.7,36.0,29.78,SSW,207,1.0,15.0,88,0.00,,,0.37,weatherlink.com 1.10,2013-02-23 04:44:00,
2013-02-22 20:59:00,38.5,36.0,29.79,SW,221,1.0,10.0,89,0.00,,,0.37,weatherlink.com 1.10,2013-02-23 04:59:00,
2013-02-22 21:14:00,38.1,36.0,29.79,WSW,256,2.0,13.0,90,0.00,,,0.37,weatherlink.com 1.10,2013-02-23 05:14:00,
2013-02-22 21:29:00,38.0,35.0,29.79,SW,215,4.0,10.0,90,0.00,,,0.37,weatherlink.com 1.10,2013-02-23 05:29:00,
2013-02-22 21:44:00,37.8,36.0,29.80,SW,228,3.0,9.0,91,0.00,,,0.37,weatherlink.com 1.10,2013-02-23 05:44:00,
2013-02-22 21:59:00,37.8,36.0,29.82,WSW,246,3.0,9.0,91,0.00,,,0.37,weatherlink.com 1.10,2013-02-23 05:59:00,
2013-02-22 22:14:00,37.7,35.0,29.83,SSE,147,0.0,7.0,91,0.00,,,0.37,weatherlink.com 1.10,2013-02-23 06:14:00,
2013-02-22 22:29:00,37.9,35.0,29.84,SSW,203,0.0,3.0,90,0.00,,,0.37,weatherlink.com 1.10,2013-02-23 06:29:00,
2013-02-22 22:44:00,37.8,35.0,29.84,ENE,67,0.0,4.0,89,0.00,,,0.37,weatherlink.com 1.10,2013-02-23 06:44:00,
2013-02-22 22:59:00,37.7,35.0,29.85,ESE,120,1.0,3.0,89,0.00,,,0.37,weatherlink.com 1.10,2013-02-23 06:59:00,
2013-02-22 23:14:00,37.6,35.0,29.86,NE,41,1.0,6.0,90,0.00,,,0.37,weatherlink.com 1.10,2013-02-23 07:14:00,
2013-02-22 23:29:00,37.8,36.0,29.86,SW,228,4.0,6.0,91,0.00,,,0.37,weatherlink.com 1.10,2013-02-23 07:29:00,
2013-02-22 23:44:00,37.7,35.0,29.87,North,359,0.0,3.0,91,0.00,,,0.37,weatherlink.com 1.10,2013-02-23 07:44:00,
2013-02-22 23:59:00,37.2,35.0,29.88,ENE,58,0.0,1.0,92,0.00,,,0.37,weatherlink.com 1.10,2013-02-23 07:59:00,